Informes de METAR cercanos

 

LEXJ - Santander/Parayas, Spain
Distance from station: ESE 6km
Actualización: 27/01/2021 13:30
Muy nuboso
Muy nuboso
 Viento del OSO
Viento: OSO 9 km/h
Temperatura: 17°C
Rocío: 17°C
Humedad: 100%
Barómetro: 1024 hPa
Clouds: Muy nuboso
Visibility: 10 km
Cloud details: Few Clouds 762 m
Muy nuboso 2347 m
2021/01/27 12:30 LEXJ 271230Z 24005KT 190V280 9999 FEW025 BKN077 17/17 Q1024
LEBB - Bilbao/Sondica, Spain
Distance from station: ESE 80km
Actualización: 27/01/2021 13:30
Muy nuboso
Muy nuboso
 Viento del varies
Viento: varies 4 km/h
Temperatura: 15°C
Rocío: 15°C
Humedad: 100%
Barómetro: 1025 hPa
Clouds: Muy nuboso
Visibility: 6 km
Cloud details: Parcialmente nuboso 152 m
Muy nuboso 610 m
2021/01/27 12:30 LEBB 271230Z VRB02KT 6000 SCT005 BKN020 15/15 Q1025 TEMPO 3000 -RA
 
LEBL - Barcelona Airpor, Spain
Distance from station: ESE 726km
Actualización: 27/01/2021 13:30
Few Clouds
Few Clouds
 Viento del SE
Viento: SE 11 km/h
Temperatura: 14°C
Rocío: 7°C
Humedad: 63%
Barómetro: 1019 hPa
Clouds: Few Clouds
Visibility: 10 km
Cloud details: Few Clouds 610 m
2021/01/27 12:30 LEBL 271230Z 13006KT 100V170 9999 FEW020 14/07 Q1019 NOSIG
LEMD - Madrid/Barajas, Spain
Distance from station: S 325km
Actualización: 27/01/2021 13:30
Few Clouds
Few Clouds
 Viento del varies
Viento: varies 4 km/h
Temperatura: 15°C
Rocío: 11°C
Humedad: 77%
Barómetro: 1026 hPa
Clouds: Few Clouds
Visibility: 10 km
Cloud details: Few Clouds 1372 m
2021/01/27 12:30 LEMD 271230Z VRB02KT 9999 FEW045 15/11 Q1026 NOSIG
 
LPPT - Lisbon/Portela, Portugal
Distance from station: SO 663km
Actualización: 27/01/2021 13:30
Muy nuboso
Muy nuboso
 Viento del calm
Viento: Calma
Temperatura: 16°C
Rocío: 14°C
Humedad: 88%
Barómetro: 1028 hPa
Clouds: Muy nuboso
Visibility: 10 km
Cloud details: Few Clouds 274 m
Muy nuboso 335 m
2021/01/27 12:30 LPPT 271230Z 00000KT 9999 FEW009 BKN011 16/14 Q1028
LECO - La Coruna/Alvedr, Spain
Distance from station: O 349km
Actualización: 27/01/2021 13:30
Muy nuboso
Muy nuboso
 Viento del SSO
Viento: SSO 15 km/h
Temperatura: 16°C
Rocío: 14°C
Humedad: 88%
Barómetro: 1026 hPa
Clouds: Muy nuboso
Visibility: 10 km
Cloud details: Few Clouds 335 m
Parcialmente nuboso 610 m
Muy nuboso 701 m
2021/01/27 12:30 LECO 271230Z 20008KT 160V240 9999 FEW011 SCT020 BKN023 16/14 Q1026 NOSIG
 
LEST - Santiago/Labacol, Spain
Distance from station: O 358km
Actualización: 27/01/2021 13:30
Light drizzle, Patches of, Niebla, Cubierto
Light drizzle, Patches of, Niebla, Cubierto
 Viento del SO
Viento: SO 11 km/h
Temperatura: 13°C
Rocío: 12°C
Humedad: 94%
Barómetro: 1027 hPa
Resumen: Light drizzle, Patches of, Niebla
Clouds: Cubierto
Visibility: 2 km
Cloud details: Cubierto 30 m
2021/01/27 12:30 LEST 271230Z 22006KT 170V280 1500 -DZ BCFG VV001 13/12 Q1027 TEMPO 0800 BCFG
EBBR - Brussels International Airport, Belgium
Distance from station: O 1339km
Actualización: 27/01/2021 13:20
Light drizzle, Mist, Muy nuboso
Light drizzle, Mist, Muy nuboso
 Viento del SO
Viento: SO 20 km/h
Temperatura: 4°C
Wind Chill: -1°C
Rocío: 3°C
Humedad: 93%
Barómetro: 1012 hPa
Resumen: Light drizzle, Mist
Clouds: Muy nuboso
Visibility: 3 km
Cloud details: Muy nuboso 152 m
2021/01/27 12:20 EBBR 271220Z 23011KT 2500 -DZ BR BKN005 04/03 Q1012 TEMPO 4000 -DZ BR BKN004